sensor_id;sensor_type;location;lat;lon;timestamp;P1;durP1;ratioP1;P2;durP2;ratioP2
20855;SDS011;63058;49.424;8.420;2023-08-17T00:01:26;1.02;;;0.73;;
20855;SDS011;63058;49.424;8.420;2023-08-17T00:03:52;6.80;;;0.98;;
20855;SDS011;63058;49.424;8.420;2023-08-17T00:06:17;1.02;;;0.60;;
20855;SDS011;63058;49.424;8.420;2023-08-17T00:08:43;2.35;;;0.80;;
20855;SDS011;63058;49.424;8.420;2023-08-17T00:11:09;1.42;;;0.77;;
20855;SDS011;63058;49.424;8.420;2023-08-17T00:13:34;1.00;;;0.75;;
20855;SDS011;63058;49.424;8.420;2023-08-17T00:16:00;1.33;;;0.80;;
20855;SDS011;63058;49.424;8.420;2023-08-17T00:18:26;0.82;;;0.65;;
20855;SDS011;63058;49.424;8.420;2023-08-17T00:20:52;1.80;;;1.00;;
20855;SDS011;63058;49.424;8.420;2023-08-17T00:23:18;2.17;;;0.77;;
20855;SDS011;63058;49.424;8.420;2023-08-17T00:25:45;2.15;;;0.80;;
20855;SDS011;63058;49.424;8.420;2023-08-17T00:28:12;2.08;;;0.80;;
20855;SDS011;63058;49.424;8.420;2023-08-17T00:30:38;1.23;;;1.00;;
20855;SDS011;63058;49.424;8.420;2023-08-17T00:33:04;1.38;;;0.80;;
20855;SDS011;63058;49.424;8.420;2023-08-17T00:35:30;1.60;;;0.70;;
20855;SDS011;63058;49.424;8.420;2023-08-17T00:37:56;2.90;;;1.00;;
20855;SDS011;63058;49.424;8.420;2023-08-17T00:40:21;1.00;;;0.80;;
20855;SDS011;63058;49.424;8.420;2023-08-17T00:42:47;1.02;;;0.90;;
20855;SDS011;63058;49.424;8.420;2023-08-17T00:45:12;1.38;;;0.80;;
20855;SDS011;63058;49.424;8.420;2023-08-17T00:47:38;1.85;;;1.00;;
20855;SDS011;63058;49.424;8.420;2023-08-17T00:50:04;3.47;;;1.00;;
20855;SDS011;63058;49.424;8.420;2023-08-17T00:52:31;1.77;;;0.98;;
20855;SDS011;63058;49.424;8.420;2023-08-17T00:54:58;1.00;;;0.82;;
20855;SDS011;63058;49.424;8.420;2023-08-17T00:57:25;1.45;;;0.90;;
20855;SDS011;63058;49.424;8.420;2023-08-17T00:59:51;2.17;;;1.10;;
20855;SDS011;63058;49.424;8.420;2023-08-17T01:02:18;2.88;;;1.33;;
20855;SDS011;63058;49.424;8.420;2023-08-17T01:04:43;1.92;;;0.98;;
20855;SDS011;63058;49.424;8.420;2023-08-17T01:07:09;4.63;;;1.20;;
20855;SDS011;63058;49.424;8.420;2023-08-17T01:09:35;2.97;;;1.45;;
20855;SDS011;63058;49.424;8.420;2023-08-17T01:12:19;2.63;;;1.40;;
20855;SDS011;63058;49.424;8.420;2023-08-17T01:15:05;2.33;;;1.38;;
20855;SDS011;63058;49.424;8.420;2023-08-17T01:17:58;2.78;;;1.35;;
20855;SDS011;63058;49.424;8.420;2023-08-17T01:20:43;2.70;;;1.15;;
20855;SDS011;63058;49.424;8.420;2023-08-17T01:23:09;2.13;;;1.40;;
20855;SDS011;63058;49.424;8.420;2023-08-17T01:25:35;2.10;;;1.45;;
20855;SDS011;63058;49.424;8.420;2023-08-17T01:28:03;2.60;;;1.88;;
20855;SDS011;63058;49.424;8.420;2023-08-17T01:30:30;3.20;;;1.55;;
20855;SDS011;63058;49.424;8.420;2023-08-17T01:33:12;1.95;;;1.40;;
20855;SDS011;63058;49.424;8.420;2023-08-17T01:35:46;2.75;;;1.77;;
20855;SDS011;63058;49.424;8.420;2023-08-17T01:38:18;3.17;;;1.48;;
20855;SDS011;63058;49.424;8.420;2023-08-17T01:40:45;3.58;;;1.90;;
20855;SDS011;63058;49.424;8.420;2023-08-17T01:43:14;3.28;;;1.60;;
20855;SDS011;63058;49.424;8.420;2023-08-17T01:45:41;1.35;;;1.17;;
20855;SDS011;63058;49.424;8.420;2023-08-17T01:48:07;2.70;;;1.42;;
20855;SDS011;63058;49.424;8.420;2023-08-17T01:50:33;3.85;;;1.73;;
20855;SDS011;63058;49.424;8.420;2023-08-17T01:52:58;2.85;;;2.00;;
20855;SDS011;63058;49.424;8.420;2023-08-17T01:55:24;2.03;;;1.45;;
20855;SDS011;63058;49.424;8.420;2023-08-17T01:57:49;2.25;;;1.73;;
20855;SDS011;63058;49.424;8.420;2023-08-17T02:00:15;2.53;;;1.70;;
20855;SDS011;63058;49.424;8.420;2023-08-17T02:02:41;4.65;;;1.90;;
20855;SDS011;63058;49.424;8.420;2023-08-17T02:05:07;2.17;;;1.70;;
20855;SDS011;63058;49.424;8.420;2023-08-17T02:07:33;2.17;;;1.90;;
20855;SDS011;63058;49.424;8.420;2023-08-17T02:09:58;2.22;;;1.55;;
20855;SDS011;63058;49.424;8.420;2023-08-17T02:12:24;2.50;;;1.50;;
20855;SDS011;63058;49.424;8.420;2023-08-17T02:14:49;3.00;;;1.77;;
20855;SDS011;63058;49.424;8.420;2023-08-17T02:17:15;2.72;;;1.73;;
20855;SDS011;63058;49.424;8.420;2023-08-17T02:19:42;1.73;;;1.27;;
20855;SDS011;63058;49.424;8.420;2023-08-17T02:22:08;3.95;;;2.03;;
20855;SDS011;63058;49.424;8.420;2023-08-17T02:24:34;2.03;;;1.67;;
20855;SDS011;63058;49.424;8.420;2023-08-17T02:26:59;5.47;;;2.05;;
20855;SDS011;63058;49.424;8.420;2023-08-17T02:29:25;2.60;;;1.90;;
20855;SDS011;63058;49.424;8.420;2023-08-17T02:31:50;2.38;;;1.83;;
20855;SDS011;63058;49.424;8.420;2023-08-17T02:34:16;2.85;;;2.25;;
20855;SDS011;63058;49.424;8.420;2023-08-17T02:36:41;2.42;;;1.83;;
20855;SDS011;63058;49.424;8.420;2023-08-17T02:39:07;2.00;;;1.80;;
20855;SDS011;63058;49.424;8.420;2023-08-17T02:41:33;3.47;;;1.80;;
20855;SDS011;63058;49.424;8.420;2023-08-17T02:43:59;4.72;;;1.95;;
20855;SDS011;63058;49.424;8.420;2023-08-17T02:46:26;4.07;;;2.10;;
20855;SDS011;63058;49.424;8.420;2023-08-17T02:48:51;3.15;;;2.28;;
20855;SDS011;63058;49.424;8.420;2023-08-17T02:51:18;3.90;;;2.03;;
20855;SDS011;63058;49.424;8.420;2023-08-17T02:53:43;2.15;;;1.80;;
20855;SDS011;63058;49.424;8.420;2023-08-17T02:56:09;1.73;;;1.45;;
20855;SDS011;63058;49.424;8.420;2023-08-17T02:58:38;2.67;;;1.75;;
20855;SDS011;63058;49.424;8.420;2023-08-17T03:01:06;1.85;;;1.65;;
20855;SDS011;63058;49.424;8.420;2023-08-17T03:03:34;3.10;;;1.60;;
20855;SDS011;63058;49.424;8.420;2023-08-17T03:06:01;4.03;;;2.03;;
20855;SDS011;63058;49.424;8.420;2023-08-17T03:08:27;2.17;;;1.98;;
20855;SDS011;63058;49.424;8.420;2023-08-17T03:10:52;3.65;;;1.90;;
20855;SDS011;63058;49.424;8.420;2023-08-17T03:13:18;2.40;;;2.00;;
20855;SDS011;63058;49.424;8.420;2023-08-17T03:15:43;5.40;;;1.67;;
20855;SDS011;63058;49.424;8.420;2023-08-17T03:18:09;2.55;;;2.03;;
20855;SDS011;63058;49.424;8.420;2023-08-17T03:20:34;2.35;;;1.88;;
20855;SDS011;63058;49.424;8.420;2023-08-17T03:23:00;2.63;;;1.70;;
20855;SDS011;63058;49.424;8.420;2023-08-17T03:25:26;3.00;;;1.80;;
20855;SDS011;63058;49.424;8.420;2023-08-17T03:27:51;2.95;;;1.42;;
20855;SDS011;63058;49.424;8.420;2023-08-17T03:30:17;2.88;;;1.75;;
20855;SDS011;63058;49.424;8.420;2023-08-17T03:32:42;2.63;;;2.10;;
20855;SDS011;63058;49.424;8.420;2023-08-17T03:35:08;4.68;;;2.30;;
20855;SDS011;63058;49.424;8.420;2023-08-17T03:37:33;2.53;;;1.80;;
20855;SDS011;63058;49.424;8.420;2023-08-17T03:39:59;4.43;;;1.75;;
20855;SDS011;63058;49.424;8.420;2023-08-17T03:42:25;3.20;;;2.05;;
20855;SDS011;63058;49.424;8.420;2023-08-17T03:44:51;1.95;;;1.70;;
20855;SDS011;63058;49.424;8.420;2023-08-17T03:47:17;3.00;;;2.28;;
20855;SDS011;63058;49.424;8.420;2023-08-17T03:49:43;2.50;;;2.10;;
20855;SDS011;63058;49.424;8.420;2023-08-17T03:52:09;4.07;;;2.47;;
20855;SDS011;63058;49.424;8.420;2023-08-17T03:54:35;2.50;;;1.98;;
20855;SDS011;63058;49.424;8.420;2023-08-17T03:57:01;3.55;;;2.55;;
20855;SDS011;63058;49.424;8.420;2023-08-17T03:59:27;4.25;;;2.38;;
20855;SDS011;63058;49.424;8.420;2023-08-17T04:01:52;4.28;;;2.63;;
20855;SDS011;63058;49.424;8.420;2023-08-17T04:04:18;5.03;;;2.88;;
20855;SDS011;63058;49.424;8.420;2023-08-17T04:06:44;3.60;;;2.30;;
20855;SDS011;63058;49.424;8.420;2023-08-17T04:09:09;2.20;;;1.35;;
20855;SDS011;63058;49.424;8.420;2023-08-17T04:11:35;3.78;;;2.15;;
20855;SDS011;63058;49.424;8.420;2023-08-17T04:14:03;2.67;;;2.13;;
20855;SDS011;63058;49.424;8.420;2023-08-17T04:16:29;2.35;;;1.90;;
20855;SDS011;63058;49.424;8.420;2023-08-17T04:18:55;4.10;;;2.67;;
20855;SDS011;63058;49.424;8.420;2023-08-17T04:21:20;3.30;;;2.33;;
20855;SDS011;63058;49.424;8.420;2023-08-17T04:23:46;3.25;;;1.83;;
20855;SDS011;63058;49.424;8.420;2023-08-17T04:26:12;2.72;;;2.22;;
20855;SDS011;63058;49.424;8.420;2023-08-17T04:28:38;4.30;;;1.90;;
20855;SDS011;63058;49.424;8.420;2023-08-17T04:31:03;3.15;;;2.58;;
20855;SDS011;63058;49.424;8.420;2023-08-17T04:33:29;3.10;;;2.65;;
20855;SDS011;63058;49.424;8.420;2023-08-17T04:35:55;2.20;;;2.00;;
20855;SDS011;63058;49.424;8.420;2023-08-17T04:38:20;2.67;;;1.95;;
20855;SDS011;63058;49.424;8.420;2023-08-17T04:40:46;2.67;;;2.10;;
20855;SDS011;63058;49.424;8.420;2023-08-17T04:43:12;4.43;;;3.10;;
20855;SDS011;63058;49.424;8.420;2023-08-17T04:45:38;4.13;;;3.13;;
20855;SDS011;63058;49.424;8.420;2023-08-17T04:48:05;7.35;;;5.88;;
20855;SDS011;63058;49.424;8.420;2023-08-17T04:50:31;7.65;;;6.38;;
20855;SDS011;63058;49.424;8.420;2023-08-17T04:52:57;7.18;;;5.32;;
20855;SDS011;63058;49.424;8.420;2023-08-17T04:55:22;7.35;;;5.57;;
20855;SDS011;63058;49.424;8.420;2023-08-17T04:57:48;7.43;;;5.40;;
20855;SDS011;63058;49.424;8.420;2023-08-17T05:00:14;9.10;;;6.53;;
20855;SDS011;63058;49.424;8.420;2023-08-17T05:02:41;10.48;;;8.18;;
20855;SDS011;63058;49.424;8.420;2023-08-17T05:05:06;9.60;;;7.05;;
20855;SDS011;63058;49.424;8.420;2023-08-17T05:07:34;11.23;;;8.38;;
20855;SDS011;63058;49.424;8.420;2023-08-17T05:10:00;12.18;;;8.13;;
20855;SDS011;63058;49.424;8.420;2023-08-17T05:12:26;12.30;;;7.75;;
20855;SDS011;63058;49.424;8.420;2023-08-17T05:17:27;14.23;;;9.48;;
20855;SDS011;63058;49.424;8.420;2023-08-17T05:19:52;15.75;;;9.55;;
20855;SDS011;63058;49.424;8.420;2023-08-17T05:22:27;14.73;;;9.20;;
20855;SDS011;63058;49.424;8.420;2023-08-17T05:24:53;14.73;;;10.30;;
20855;SDS011;63058;49.424;8.420;2023-08-17T05:27:18;17.77;;;11.93;;
20855;SDS011;63058;49.424;8.420;2023-08-17T05:29:44;16.88;;;11.50;;
20855;SDS011;63058;49.424;8.420;2023-08-17T05:32:09;16.33;;;9.85;;
20855;SDS011;63058;49.424;8.420;2023-08-17T05:34:35;17.90;;;9.75;;
20855;SDS011;63058;49.424;8.420;2023-08-17T05:37:01;16.52;;;10.65;;
20855;SDS011;63058;49.424;8.420;2023-08-17T05:39:28;17.45;;;10.98;;
20855;SDS011;63058;49.424;8.420;2023-08-17T05:41:53;18.60;;;12.15;;
20855;SDS011;63058;49.424;8.420;2023-08-17T05:44:22;15.23;;;9.48;;
20855;SDS011;63058;49.424;8.420;2023-08-17T05:46:48;17.95;;;11.52;;
20855;SDS011;63058;49.424;8.420;2023-08-17T05:49:16;20.15;;;13.35;;
20855;SDS011;63058;49.424;8.420;2023-08-17T05:54:21;15.02;;;10.18;;
20855;SDS011;63058;49.424;8.420;2023-08-17T05:56:47;16.15;;;10.80;;
20855;SDS011;63058;49.424;8.420;2023-08-17T05:59:13;17.17;;;11.07;;
20855;SDS011;63058;49.424;8.420;2023-08-17T06:01:39;19.00;;;11.75;;
20855;SDS011;63058;49.424;8.420;2023-08-17T06:04:05;16.98;;;10.77;;
20855;SDS011;63058;49.424;8.420;2023-08-17T06:06:32;14.02;;;10.68;;
20855;SDS011;63058;49.424;8.420;2023-08-17T06:08:58;14.85;;;11.05;;
20855;SDS011;63058;49.424;8.420;2023-08-17T06:11:26;13.45;;;9.20;;
20855;SDS011;63058;49.424;8.420;2023-08-17T06:13:52;12.73;;;8.20;;
20855;SDS011;63058;49.424;8.420;2023-08-17T06:16:18;12.10;;;8.95;;
20855;SDS011;63058;49.424;8.420;2023-08-17T06:18:43;13.50;;;10.00;;
20855;SDS011;63058;49.424;8.420;2023-08-17T06:21:13;12.48;;;9.20;;
20855;SDS011;63058;49.424;8.420;2023-08-17T06:23:39;11.68;;;8.52;;
20855;SDS011;63058;49.424;8.420;2023-08-17T06:26:04;12.82;;;8.27;;
20855;SDS011;63058;49.424;8.420;2023-08-17T06:28:30;14.85;;;8.77;;
20855;SDS011;63058;49.424;8.420;2023-08-17T06:30:55;14.00;;;8.38;;
20855;SDS011;63058;49.424;8.420;2023-08-17T06:33:21;11.98;;;8.10;;
20855;SDS011;63058;49.424;8.420;2023-08-17T06:35:48;12.27;;;8.98;;
20855;SDS011;63058;49.424;8.420;2023-08-17T06:38:14;10.18;;;8.23;;
20855;SDS011;63058;49.424;8.420;2023-08-17T06:40:39;9.73;;;7.80;;
20855;SDS011;63058;49.424;8.420;2023-08-17T06:43:05;11.73;;;7.93;;
20855;SDS011;63058;49.424;8.420;2023-08-17T06:45:31;9.80;;;8.02;;
20855;SDS011;63058;49.424;8.420;2023-08-17T06:47:57;11.63;;;8.75;;
20855;SDS011;63058;49.424;8.420;2023-08-17T06:50:23;10.80;;;8.90;;
20855;SDS011;63058;49.424;8.420;2023-08-17T06:52:48;10.07;;;7.93;;
20855;SDS011;63058;49.424;8.420;2023-08-17T06:55:14;11.02;;;7.43;;
20855;SDS011;63058;49.424;8.420;2023-08-17T06:57:40;9.60;;;7.95;;
20855;SDS011;63058;49.424;8.420;2023-08-17T07:00:06;12.25;;;9.27;;
20855;SDS011;63058;49.424;8.420;2023-08-17T07:02:32;10.57;;;7.82;;
20855;SDS011;63058;49.424;8.420;2023-08-17T07:04:59;13.20;;;10.35;;
20855;SDS011;63058;49.424;8.420;2023-08-17T07:07:25;10.48;;;8.00;;
20855;SDS011;63058;49.424;8.420;2023-08-17T07:09:51;9.07;;;7.10;;
20855;SDS011;63058;49.424;8.420;2023-08-17T07:12:16;10.00;;;8.57;;
20855;SDS011;63058;49.424;8.420;2023-08-17T07:14:42;12.00;;;9.38;;
20855;SDS011;63058;49.424;8.420;2023-08-17T07:17:07;12.63;;;9.90;;
20855;SDS011;63058;49.424;8.420;2023-08-17T07:19:33;11.98;;;9.50;;
20855;SDS011;63058;49.424;8.420;2023-08-17T07:21:58;9.65;;;8.23;;
20855;SDS011;63058;49.424;8.420;2023-08-17T07:24:24;10.70;;;7.68;;
20855;SDS011;63058;49.424;8.420;2023-08-17T07:26:49;10.93;;;9.35;;
20855;SDS011;63058;49.424;8.420;2023-08-17T07:29:15;10.20;;;8.27;;
20855;SDS011;63058;49.424;8.420;2023-08-17T07:31:41;12.68;;;8.77;;
20855;SDS011;63058;49.424;8.420;2023-08-17T07:34:06;11.80;;;9.02;;
20855;SDS011;63058;49.424;8.420;2023-08-17T07:36:33;12.77;;;10.30;;
20855;SDS011;63058;49.424;8.420;2023-08-17T07:38:58;9.98;;;8.95;;
20855;SDS011;63058;49.424;8.420;2023-08-17T07:41:24;12.75;;;8.68;;
20855;SDS011;63058;49.424;8.420;2023-08-17T07:43:50;12.43;;;7.82;;
20855;SDS011;63058;49.424;8.420;2023-08-17T07:46:16;10.52;;;8.77;;
20855;SDS011;63058;49.424;8.420;2023-08-17T07:48:42;9.40;;;8.35;;
20855;SDS011;63058;49.424;8.420;2023-08-17T07:51:07;13.45;;;10.70;;
20855;SDS011;63058;49.424;8.420;2023-08-17T07:53:33;12.15;;;10.25;;
20855;SDS011;63058;49.424;8.420;2023-08-17T07:55:59;12.52;;;8.65;;
20855;SDS011;63058;49.424;8.420;2023-08-17T07:58:24;9.13;;;8.23;;
20855;SDS011;63058;49.424;8.420;2023-08-17T08:00:50;7.72;;;6.90;;
20855;SDS011;63058;49.424;8.420;2023-08-17T08:03:15;9.68;;;7.30;;
20855;SDS011;63058;49.424;8.420;2023-08-17T08:05:41;9.32;;;7.72;;
20855;SDS011;63058;49.424;8.420;2023-08-17T08:08:06;8.85;;;7.45;;
20855;SDS011;63058;49.424;8.420;2023-08-17T08:10:32;8.82;;;7.93;;
20855;SDS011;63058;49.424;8.420;2023-08-17T08:12:57;10.52;;;8.50;;
20855;SDS011;63058;49.424;8.420;2023-08-17T08:15:23;10.32;;;8.35;;
20855;SDS011;63058;49.424;8.420;2023-08-17T08:17:49;10.35;;;7.80;;
20855;SDS011;63058;49.424;8.420;2023-08-17T08:20:14;8.85;;;7.90;;
20855;SDS011;63058;49.424;8.420;2023-08-17T08:22:40;11.75;;;9.90;;
20855;SDS011;63058;49.424;8.420;2023-08-17T08:25:05;11.45;;;10.18;;
20855;SDS011;63058;49.424;8.420;2023-08-17T08:27:31;9.55;;;8.52;;
20855;SDS011;63058;49.424;8.420;2023-08-17T08:29:57;8.90;;;7.82;;
20855;SDS011;63058;49.424;8.420;2023-08-17T08:32:22;10.73;;;8.35;;
20855;SDS011;63058;49.424;8.420;2023-08-17T08:34:48;9.15;;;7.70;;
20855;SDS011;63058;49.424;8.420;2023-08-17T08:37:14;10.40;;;7.60;;
20855;SDS011;63058;49.424;8.420;2023-08-17T08:39:49;7.82;;;7.07;;
20855;SDS011;63058;49.424;8.420;2023-08-17T08:42:16;10.95;;;6.50;;
20855;SDS011;63058;49.424;8.420;2023-08-17T08:44:42;8.80;;;7.72;;
20855;SDS011;63058;49.424;8.420;2023-08-17T08:47:11;10.05;;;8.90;;
20855;SDS011;63058;49.424;8.420;2023-08-17T08:49:43;10.52;;;7.90;;
20855;SDS011;63058;49.424;8.420;2023-08-17T08:52:34;8.50;;;7.68;;
20855;SDS011;63058;49.424;8.420;2023-08-17T08:55:11;8.13;;;7.30;;
20855;SDS011;63058;49.424;8.420;2023-08-17T08:57:39;8.63;;;5.82;;
20855;SDS011;63058;49.424;8.420;2023-08-17T09:00:06;8.40;;;6.40;;
20855;SDS011;63058;49.424;8.420;2023-08-17T09:02:32;9.55;;;7.63;;
20855;SDS011;63058;49.424;8.420;2023-08-17T09:04:59;12.23;;;8.30;;
20855;SDS011;63058;49.424;8.420;2023-08-17T09:07:26;9.90;;;7.30;;
20855;SDS011;63058;49.424;8.420;2023-08-17T09:09:55;9.40;;;8.00;;
20855;SDS011;63058;49.424;8.420;2023-08-17T09:12:24;8.52;;;7.50;;
20855;SDS011;63058;49.424;8.420;2023-08-17T09:14:50;8.48;;;7.68;;
20855;SDS011;63058;49.424;8.420;2023-08-17T09:17:25;8.18;;;6.35;;
20855;SDS011;63058;49.424;8.420;2023-08-17T09:19:51;6.00;;;5.13;;
20855;SDS011;63058;49.424;8.420;2023-08-17T09:22:24;13.93;;;5.13;;
20855;SDS011;63058;49.424;8.420;2023-08-17T09:25:06;7.90;;;5.47;;
20855;SDS011;63058;49.424;8.420;2023-08-17T09:27:33;5.22;;;4.72;;
20855;SDS011;63058;49.424;8.420;2023-08-17T09:30:05;5.63;;;4.07;;
20855;SDS011;63058;49.424;8.420;2023-08-17T09:32:35;5.00;;;4.07;;
20855;SDS011;63058;49.424;8.420;2023-08-17T09:35:05;6.75;;;4.80;;
20855;SDS011;63058;49.424;8.420;2023-08-17T09:37:34;8.43;;;5.65;;
20855;SDS011;63058;49.424;8.420;2023-08-17T09:40:00;8.38;;;5.50;;
20855;SDS011;63058;49.424;8.420;2023-08-17T09:42:26;6.05;;;4.45;;
20855;SDS011;63058;49.424;8.420;2023-08-17T09:44:52;5.05;;;4.57;;
20855;SDS011;63058;49.424;8.420;2023-08-17T09:47:19;5.90;;;5.30;;
20855;SDS011;63058;49.424;8.420;2023-08-17T09:49:52;5.78;;;4.18;;
20855;SDS011;63058;49.424;8.420;2023-08-17T09:52:19;7.47;;;4.78;;
20855;SDS011;63058;49.424;8.420;2023-08-17T09:54:45;7.32;;;4.35;;
20855;SDS011;63058;49.424;8.420;2023-08-17T09:57:12;5.78;;;5.18;;
20855;SDS011;63058;49.424;8.420;2023-08-17T09:59:39;7.22;;;5.25;;
20855;SDS011;63058;49.424;8.420;2023-08-17T10:02:07;7.20;;;6.07;;
20855;SDS011;63058;49.424;8.420;2023-08-17T10:04:44;5.32;;;4.40;;
20855;SDS011;63058;49.424;8.420;2023-08-17T10:07:13;5.57;;;5.07;;
20855;SDS011;63058;49.424;8.420;2023-08-17T10:09:42;6.15;;;5.20;;
20855;SDS011;63058;49.424;8.420;2023-08-17T10:12:10;5.47;;;4.97;;
20855;SDS011;63058;49.424;8.420;2023-08-17T10:14:42;5.97;;;5.45;;
20855;SDS011;63058;49.424;8.420;2023-08-17T10:17:14;6.45;;;5.85;;
20855;SDS011;63058;49.424;8.420;2023-08-17T10:19:58;6.72;;;5.32;;
20855;SDS011;63058;49.424;8.420;2023-08-17T10:24:54;6.03;;;5.32;;
20855;SDS011;63058;49.424;8.420;2023-08-17T10:27:22;3.85;;;3.55;;
20855;SDS011;63058;49.424;8.420;2023-08-17T10:29:48;5.63;;;4.88;;
20855;SDS011;63058;49.424;8.420;2023-08-17T10:32:16;5.30;;;4.38;;
20855;SDS011;63058;49.424;8.420;2023-08-17T10:34:42;5.03;;;4.20;;
20855;SDS011;63058;49.424;8.420;2023-08-17T10:37:08;5.28;;;4.60;;
20855;SDS011;63058;49.424;8.420;2023-08-17T10:39:34;3.85;;;3.55;;
20855;SDS011;63058;49.424;8.420;2023-08-17T10:42:02;4.55;;;3.80;;
20855;SDS011;63058;49.424;8.420;2023-08-17T10:44:38;5.05;;;3.35;;
20855;SDS011;63058;49.424;8.420;2023-08-17T10:47:24;4.55;;;2.90;;
20855;SDS011;63058;49.424;8.420;2023-08-17T10:50:03;5.00;;;2.75;;
20855;SDS011;63058;49.424;8.420;2023-08-17T10:52:32;3.92;;;3.53;;
20855;SDS011;63058;49.424;8.420;2023-08-17T10:55:00;3.50;;;3.20;;
20855;SDS011;63058;49.424;8.420;2023-08-17T10:57:36;2.92;;;2.42;;
20855;SDS011;63058;49.424;8.420;2023-08-17T11:00:06;2.95;;;2.63;;
20855;SDS011;63058;49.424;8.420;2023-08-17T11:02:33;4.28;;;3.45;;
20855;SDS011;63058;49.424;8.420;2023-08-17T11:05:00;6.22;;;2.83;;
20855;SDS011;63058;49.424;8.420;2023-08-17T11:07:26;5.63;;;2.70;;
20855;SDS011;63058;49.424;8.420;2023-08-17T11:09:55;3.88;;;2.75;;
20855;SDS011;63058;49.424;8.420;2023-08-17T11:12:25;5.43;;;2.50;;
20855;SDS011;63058;49.424;8.420;2023-08-17T11:14:52;3.63;;;2.58;;
20855;SDS011;63058;49.424;8.420;2023-08-17T11:17:20;2.78;;;2.53;;
20855;SDS011;63058;49.424;8.420;2023-08-17T11:19:46;2.70;;;2.05;;
20855;SDS011;63058;49.424;8.420;2023-08-17T11:22:12;2.10;;;1.90;;
20855;SDS011;63058;49.424;8.420;2023-08-17T11:24:37;1.98;;;1.88;;
20855;SDS011;63058;49.424;8.420;2023-08-17T11:27:05;3.22;;;2.53;;
20855;SDS011;63058;49.424;8.420;2023-08-17T11:29:31;2.60;;;2.40;;
20855;SDS011;63058;49.424;8.420;2023-08-17T11:31:58;3.00;;;2.35;;
20855;SDS011;63058;49.424;8.420;2023-08-17T11:34:23;3.72;;;2.50;;
20855;SDS011;63058;49.424;8.420;2023-08-17T11:36:49;2.83;;;2.05;;
20855;SDS011;63058;49.424;8.420;2023-08-17T11:39:15;3.35;;;2.33;;
20855;SDS011;63058;49.424;8.420;2023-08-17T11:41:40;2.40;;;2.17;;
20855;SDS011;63058;49.424;8.420;2023-08-17T11:44:06;3.92;;;2.03;;
20855;SDS011;63058;49.424;8.420;2023-08-17T11:46:32;2.63;;;2.10;;
20855;SDS011;63058;49.424;8.420;2023-08-17T11:49:00;1.65;;;1.48;;
20855;SDS011;63058;49.424;8.420;2023-08-17T11:51:32;2.30;;;2.13;;
20855;SDS011;63058;49.424;8.420;2023-08-17T11:53:58;2.42;;;1.90;;
20855;SDS011;63058;49.424;8.420;2023-08-17T11:56:25;2.83;;;2.20;;
20855;SDS011;63058;49.424;8.420;2023-08-17T11:58:50;3.00;;;2.10;;
20855;SDS011;63058;49.424;8.420;2023-08-17T12:01:16;2.85;;;1.67;;
20855;SDS011;63058;49.424;8.420;2023-08-17T12:03:41;4.55;;;2.08;;
20855;SDS011;63058;49.424;8.420;2023-08-17T12:06:07;3.97;;;1.90;;
20855;SDS011;63058;49.424;8.420;2023-08-17T12:08:34;2.42;;;1.90;;
20855;SDS011;63058;49.424;8.420;2023-08-17T12:11:00;3.08;;;2.13;;
20855;SDS011;63058;49.424;8.420;2023-08-17T12:13:33;5.07;;;2.60;;
20855;SDS011;63058;49.424;8.420;2023-08-17T12:15:59;2.42;;;1.95;;
20855;SDS011;63058;49.424;8.420;2023-08-17T12:18:25;4.75;;;2.17;;
20855;SDS011;63058;49.424;8.420;2023-08-17T12:20:52;6.13;;;2.30;;
20855;SDS011;63058;49.424;8.420;2023-08-17T12:23:18;2.05;;;1.92;;
20855;SDS011;63058;49.424;8.420;2023-08-17T12:25:44;2.72;;;2.00;;
20855;SDS011;63058;49.424;8.420;2023-08-17T12:28:12;2.88;;;2.00;;
20855;SDS011;63058;49.424;8.420;2023-08-17T12:30:37;3.53;;;1.88;;
20855;SDS011;63058;49.424;8.420;2023-08-17T12:33:03;3.63;;;1.73;;
20855;SDS011;63058;49.424;8.420;2023-08-17T12:35:31;2.60;;;1.83;;
20855;SDS011;63058;49.424;8.420;2023-08-17T12:37:57;2.85;;;1.85;;
20855;SDS011;63058;49.424;8.420;2023-08-17T12:40:23;1.60;;;1.48;;
20855;SDS011;63058;49.424;8.420;2023-08-17T12:42:49;2.42;;;1.63;;
20855;SDS011;63058;49.424;8.420;2023-08-17T12:45:15;2.47;;;1.60;;
20855;SDS011;63058;49.424;8.420;2023-08-17T12:47:41;1.73;;;1.63;;
20855;SDS011;63058;49.424;8.420;2023-08-17T12:50:07;4.63;;;1.58;;
20855;SDS011;63058;49.424;8.420;2023-08-17T12:52:33;1.67;;;1.50;;
20855;SDS011;63058;49.424;8.420;2023-08-17T12:54:59;1.60;;;1.50;;
20855;SDS011;63058;49.424;8.420;2023-08-17T12:57:24;3.72;;;1.70;;
20855;SDS011;63058;49.424;8.420;2023-08-17T12:59:51;4.22;;;1.95;;
20855;SDS011;63058;49.424;8.420;2023-08-17T13:02:17;3.63;;;1.80;;
20855;SDS011;63058;49.424;8.420;2023-08-17T13:04:43;3.00;;;1.83;;
20855;SDS011;63058;49.424;8.420;2023-08-17T13:07:09;2.53;;;1.67;;
20855;SDS011;63058;49.424;8.420;2023-08-17T13:09:34;4.68;;;1.75;;
20855;SDS011;63058;49.424;8.420;2023-08-17T13:12:00;2.17;;;1.70;;
20855;SDS011;63058;49.424;8.420;2023-08-17T13:14:26;3.03;;;1.83;;
20855;SDS011;63058;49.424;8.420;2023-08-17T13:16:51;3.33;;;1.80;;
20855;SDS011;63058;49.424;8.420;2023-08-17T13:19:17;2.92;;;1.80;;
20855;SDS011;63058;49.424;8.420;2023-08-17T13:21:43;1.83;;;1.73;;
20855;SDS011;63058;49.424;8.420;2023-08-17T13:24:09;3.13;;;1.70;;
20855;SDS011;63058;49.424;8.420;2023-08-17T13:26:35;3.47;;;2.13;;
20855;SDS011;63058;49.424;8.420;2023-08-17T13:29:00;2.22;;;1.95;;
20855;SDS011;63058;49.424;8.420;2023-08-17T13:31:26;4.72;;;1.80;;
20855;SDS011;63058;49.424;8.420;2023-08-17T13:33:52;2.85;;;2.08;;
20855;SDS011;63058;49.424;8.420;2023-08-17T13:36:18;2.67;;;2.17;;
20855;SDS011;63058;49.424;8.420;2023-08-17T13:38:44;3.58;;;1.90;;
20855;SDS011;63058;49.424;8.420;2023-08-17T13:41:10;2.10;;;1.90;;
20855;SDS011;63058;49.424;8.420;2023-08-17T13:43:36;2.30;;;2.10;;
20855;SDS011;63058;49.424;8.420;2023-08-17T13:46:02;3.17;;;1.88;;
20855;SDS011;63058;49.424;8.420;2023-08-17T13:48:27;3.60;;;2.30;;
20855;SDS011;63058;49.424;8.420;2023-08-17T13:50:53;3.08;;;2.03;;
20855;SDS011;63058;49.424;8.420;2023-08-17T13:53:19;2.03;;;1.77;;
20855;SDS011;63058;49.424;8.420;2023-08-17T13:55:44;2.45;;;1.90;;
20855;SDS011;63058;49.424;8.420;2023-08-17T13:58:10;2.80;;;2.00;;
20855;SDS011;63058;49.424;8.420;2023-08-17T14:00:36;2.03;;;1.45;;
20855;SDS011;63058;49.424;8.420;2023-08-17T14:03:02;2.22;;;1.70;;
20855;SDS011;63058;49.424;8.420;2023-08-17T14:05:28;2.00;;;1.55;;
20855;SDS011;63058;49.424;8.420;2023-08-17T14:07:53;2.88;;;2.00;;
20855;SDS011;63058;49.424;8.420;2023-08-17T14:10:20;2.28;;;1.85;;
20855;SDS011;63058;49.424;8.420;2023-08-17T14:12:45;2.70;;;1.65;;
20855;SDS011;63058;49.424;8.420;2023-08-17T14:15:11;2.88;;;1.85;;
20855;SDS011;63058;49.424;8.420;2023-08-17T14:17:37;2.70;;;1.67;;
20855;SDS011;63058;49.424;8.420;2023-08-17T14:20:03;5.55;;;1.70;;
20855;SDS011;63058;49.424;8.420;2023-08-17T14:22:29;3.65;;;1.70;;
20855;SDS011;63058;49.424;8.420;2023-08-17T14:24:55;1.88;;;1.55;;
20855;SDS011;63058;49.424;8.420;2023-08-17T14:27:21;2.25;;;1.77;;
20855;SDS011;63058;49.424;8.420;2023-08-17T14:29:46;1.90;;;1.70;;
20855;SDS011;63058;49.424;8.420;2023-08-17T14:32:12;2.17;;;1.65;;
20855;SDS011;63058;49.424;8.420;2023-08-17T14:34:38;2.20;;;1.60;;
20855;SDS011;63058;49.424;8.420;2023-08-17T14:37:03;1.70;;;1.42;;
20855;SDS011;63058;49.424;8.420;2023-08-17T14:39:29;2.40;;;1.38;;
20855;SDS011;63058;49.424;8.420;2023-08-17T14:41:54;3.75;;;1.60;;
20855;SDS011;63058;49.424;8.420;2023-08-17T14:44:20;2.20;;;1.40;;
20855;SDS011;63058;49.424;8.420;2023-08-17T14:46:46;1.77;;;1.58;;
20855;SDS011;63058;49.424;8.420;2023-08-17T14:49:11;2.15;;;1.50;;